Time;durP1;ratioP1;P1;durP2;ratioP2;P2;SDS_P1;SDS_P2;PMS_P1;PMS_P2;Temp;Humidity;BMP_temperature;BMP_pressure;BME280_temperature;BME280_humidity;BME280_pressure;Samples;Min_cycle;Max_cycle;Signal;HPM_P1;HPM_P2
2022/07/08 00:02:16;;;;;;;7.25;1.27;;;18.90;87.10;;;;;;5133012;27;45699;-66
2022/07/08 00:04:43;;;;;;;7.93;1.70;;;18.90;87.10;;;;;;5133257;27;46283;-66
2022/07/08 00:07:10;;;;;;;6.85;1.63;;;18.90;87.80;;;;;;5129632;27;45924;-66
2022/07/08 00:09:36;;;;;;;4.05;1.00;;;19.00;86.40;;;;;;5135337;27;45354;-67
2022/07/08 00:12:04;;;;;;;8.30;1.55;;;18.90;87.00;;;;;;5135533;27;45327;-66
2022/07/08 00:14:31;;;;;;;7.65;1.42;;;18.90;86.40;;;;;;5132522;27;45259;-67
2022/07/08 00:16:58;;;;;;;9.25;1.67;;;18.90;87.00;;;;;;5135873;27;45445;-66
2022/07/08 00:19:26;;;;;;;8.90;1.80;;;18.90;86.60;;;;;;5138463;27;45346;-67
2022/07/08 00:21:53;;;;;;;5.22;1.30;;;18.90;86.80;;;;;;5136640;27;45526;-67
2022/07/08 00:24:19;;;;;;;6.53;1.30;;;18.90;87.50;;;;;;5143030;27;45489;-66
2022/07/08 00:26:46;;;;;;;6.15;1.25;;;18.90;86.30;;;;;;5132698;27;45520;-66
2022/07/08 00:29:13;;;;;;;4.20;0.98;;;18.90;87.60;;;;;;5139646;27;45393;-66
2022/07/08 00:31:40;;;;;;;5.88;1.30;;;18.80;86.70;;;;;;5141102;27;45385;-67
2022/07/08 00:34:08;;;;;;;8.57;1.50;;;18.80;88.10;;;;;;5134834;27;46276;-66
2022/07/08 00:36:36;;;;;;;5.45;1.25;;;18.70;87.10;;;;;;5134166;27;45456;-66
2022/07/08 00:39:04;;;;;;;7.22;1.60;;;18.80;87.70;;;;;;5142108;27;45426;-66
2022/07/08 00:41:31;;;;;;;4.20;1.40;;;18.90;88.20;;;;;;5138101;27;45389;-66
2022/07/08 00:43:57;;;;;;;6.10;1.33;;;18.90;88.00;;;;;;5137273;27;46771;-66
2022/07/08 00:46:24;;;;;;;11.43;1.27;;;18.90;87.10;;;;;;5139765;27;45354;-66
2022/07/08 00:48:51;;;;;;;7.80;1.30;;;18.90;87.20;;;;;;5141838;27;45208;-66
2022/07/08 00:51:19;;;;;;;9.40;1.30;;;18.90;87.30;;;;;;5136616;27;45718;-67
2022/07/08 00:53:51;;;;;;;7.53;1.17;;;18.90;87.10;;;;;;5131201;27;48496;-67
2022/07/08 00:56:19;;;;;;;7.78;1.98;;;18.90;87.90;;;;;;5142611;27;45348;-66
2022/07/08 00:58:47;;;;;;;7.25;1.40;;;18.70;87.00;;;;;;5132625;27;45339;-66
2022/07/08 01:01:15;;;;;;;7.90;1.30;;;18.70;87.10;;;;;;5142315;27;45657;-66
2022/07/08 01:03:42;;;;;;;7.78;1.35;;;18.80;87.70;;;;;;5140932;27;47109;-66
2022/07/08 01:06:09;;;;;;;7.07;1.42;;;18.80;88.50;;;;;;5136128;27;45357;-66
2022/07/08 01:08:36;;;;;;;9.52;1.65;;;18.80;86.80;;;;;;5134434;27;45442;-66
2022/07/08 01:11:05;;;;;;;5.97;1.25;;;18.80;87.00;;;;;;5136804;27;45566;-67
2022/07/08 01:13:32;;;;;;;13.65;2.08;;;18.80;87.30;;;;;;5144691;27;47645;-66
2022/07/08 01:15:59;;;;;;;6.72;1.42;;;18.80;86.90;;;;;;5138592;27;45365;-66
2022/07/08 01:18:28;;;;;;;9.07;1.45;;;18.70;87.60;;;;;;5138534;27;45408;-66
2022/07/08 01:20:57;;;;;;;6.28;1.40;;;18.70;88.20;;;;;;5140851;27;45500;-67
2022/07/08 01:23:24;;;;;;;6.18;1.23;;;18.60;87.50;;;;;;5144397;27;45251;-67
2022/07/08 01:25:53;;;;;;;9.00;1.60;;;18.70;87.40;;;;;;5137738;27;45462;-66
2022/07/08 01:28:20;;;;;;;11.02;1.42;;;18.70;87.60;;;;;;5142176;27;45525;-66
2022/07/08 01:30:47;;;;;;;6.05;1.13;;;18.70;87.80;;;;;;5146148;27;45442;-67
2022/07/08 01:33:14;;;;;;;9.98;1.25;;;18.70;87.90;;;;;;5147356;27;45369;-66
2022/07/08 01:35:40;;;;;;;8.50;1.30;;;18.70;87.50;;;;;;5145894;27;45309;-66
2022/07/08 01:38:08;;;;;;;10.75;1.30;;;18.80;87.50;;;;;;5139220;27;45353;-67
2022/07/08 01:40:35;;;;;;;7.53;1.35;;;18.80;88.00;;;;;;5136408;27;45292;-66
2022/07/08 01:43:02;;;;;;;7.25;1.30;;;18.80;87.70;;;;;;5142915;27;46424;-66
2022/07/08 01:45:29;;;;;;;5.15;1.00;;;18.80;87.80;;;;;;5140602;27;45228;-67
2022/07/08 01:47:55;;;;;;;6.72;1.25;;;18.90;88.50;;;;;;5146264;27;45422;-66
2022/07/08 01:50:22;;;;;;;5.20;1.40;;;18.90;88.60;;;;;;5147315;27;45299;-66
2022/07/08 01:52:49;;;;;;;7.25;1.42;;;18.90;87.60;;;;;;5145781;27;46418;-67
2022/07/08 01:55:18;;;;;;;3.80;1.20;;;18.90;87.70;;;;;;5144961;27;45344;-67
2022/07/08 01:57:44;;;;;;;5.63;1.23;;;18.90;87.80;;;;;;5141478;27;45438;-67
2022/07/08 02:00:12;;;;;;;7.38;1.25;;;18.90;87.20;;;;;;5143524;27;45512;-66
2022/07/08 02:02:39;;;;;;;4.82;1.30;;;18.90;87.80;;;;;;5142670;27;45483;-67
2022/07/08 02:05:07;;;;;;;6.10;1.17;;;18.90;87.50;;;;;;5145303;27;45407;-66
2022/07/08 02:07:34;;;;;;;6.38;1.05;;;18.90;87.80;;;;;;5145806;27;45392;-66
2022/07/08 02:10:01;;;;;;;7.65;1.30;;;18.90;88.10;;;;;;5143997;27;45279;-67
2022/07/08 02:12:28;;;;;;;4.55;1.23;;;18.80;87.50;;;;;;5139158;27;46267;-66
2022/07/08 02:15:01;;;;;;;3.80;0.90;;;18.90;87.80;;;;;;5141236;27;45451;-66
2022/07/08 02:17:29;;;;;;;8.35;1.23;;;18.80;87.70;;;;;;5141019;27;45633;-66
2022/07/08 02:19:57;;;;;;;5.00;0.98;;;18.80;86.90;;;;;;5141505;27;45479;-66
2022/07/08 02:22:24;;;;;;;8.23;1.25;;;18.80;87.60;;;;;;5138686;27;46579;-66
2022/07/08 02:24:51;;;;;;;6.35;1.17;;;18.70;87.80;;;;;;5136710;27;45276;-66
2022/07/08 02:27:18;;;;;;;7.47;1.15;;;18.70;87.00;;;;;;5143902;27;45440;-67
2022/07/08 02:29:46;;;;;;;4.25;1.13;;;18.80;86.70;;;;;;5135981;27;45403;-66
2022/07/08 02:32:13;;;;;;;7.22;1.55;;;18.80;87.30;;;;;;5133961;27;45346;-66
2022/07/08 02:34:40;;;;;;;4.80;1.20;;;18.70;86.30;;;;;;5142374;27;45353;-66
2022/07/08 02:37:07;;;;;;;9.60;1.05;;;18.70;86.50;;;;;;5128195;27;45587;-66
2022/07/08 02:39:33;;;;;;;5.72;1.00;;;18.70;86.40;;;;;;5134755;27;45627;-66
2022/07/08 02:42:00;;;;;;;6.15;1.27;;;18.80;87.30;;;;;;5142975;27;46603;-66
2022/07/08 02:44:27;;;;;;;5.65;1.25;;;18.80;87.10;;;;;;5143818;27;45216;-66
2022/07/08 02:46:55;;;;;;;4.75;1.10;;;18.70;86.80;;;;;;5145421;27;45361;-66
2022/07/08 02:49:22;;;;;;;4.93;1.25;;;18.70;87.90;;;;;;5138061;27;45464;-66
2022/07/08 02:51:49;;;;;;;6.82;1.25;;;18.70;87.30;;;;;;5138701;27;45445;-66
2022/07/08 02:54:15;;;;;;;8.57;1.25;;;18.80;86.40;;;;;;5142645;27;45461;-66
2022/07/08 02:56:42;;;;;;;4.25;0.77;;;18.70;86.30;;;;;;5136783;27;45444;-66
2022/07/08 02:59:09;;;;;;;8.07;1.33;;;18.70;86.20;;;;;;5141946;27;45549;-67
2022/07/08 03:01:36;;;;;;;7.53;1.13;;;18.60;86.60;;;;;;5143493;27;47663;-66
2022/07/08 03:04:05;;;;;;;7.13;1.52;;;18.60;86.80;;;;;;5138860;27;45454;-66
2022/07/08 03:06:31;;;;;;;7.68;1.25;;;18.70;87.10;;;;;;5140757;27;45224;-66
2022/07/08 03:08:58;;;;;;;5.03;1.40;;;18.60;87.10;;;;;;5136181;27;45342;-66
2022/07/08 03:11:26;;;;;;;4.75;1.00;;;18.60;86.90;;;;;;5140584;27;45390;-67
2022/07/08 03:13:53;;;;;;;6.32;1.45;;;18.40;87.30;;;;;;5138309;27;45553;-67
2022/07/08 03:16:20;;;;;;;8.02;1.40;;;18.30;88.00;;;;;;5145274;27;45404;-66
2022/07/08 03:18:47;;;;;;;7.65;1.70;;;18.20;88.20;;;;;;5142728;27;45304;-66
2022/07/08 03:21:15;;;;;;;4.00;1.30;;;18.10;88.70;;;;;;5133083;27;46649;-66
2022/07/08 03:23:42;;;;;;;6.45;1.10;;;18.10;89.00;;;;;;5141103;27;45427;-66
2022/07/08 03:26:08;;;;;;;9.80;1.52;;;18.10;89.80;;;;;;5144968;27;45408;-66
2022/07/08 03:28:35;;;;;;;6.50;1.25;;;18.20;90.00;;;;;;5141526;27;45481;-66
2022/07/08 03:31:02;;;;;;;5.68;1.10;;;18.20;89.50;;;;;;5140898;27;45442;-67
2022/07/08 03:33:29;;;;;;;6.30;1.30;;;18.30;90.00;;;;;;5137546;27;45380;-67
2022/07/08 03:35:56;;;;;;;9.98;1.00;;;18.30;88.90;;;;;;5134484;27;45316;-66
2022/07/08 03:38:24;;;;;;;3.65;1.17;;;18.30;89.20;;;;;;5139951;27;45453;-66
2022/07/08 03:43:35;;;;;;;3.78;1.17;;;18.30;90.20;;;;;;5134218;27;45479;-67
2022/07/08 03:46:01;;;;;;;4.45;1.20;;;18.20;90.20;;;;;;5144870;27;45399;-66
2022/07/08 03:48:28;;;;;;;4.82;1.17;;;18.30;90.90;;;;;;5130720;27;45522;-66
2022/07/08 03:50:55;;;;;;;5.70;1.02;;;18.30;91.10;;;;;;5139146;27;45320;-66
2022/07/08 03:53:22;;;;;;;4.95;1.15;;;18.30;90.90;;;;;;5136693;27;45384;-67
2022/07/08 03:55:50;;;;;;;5.85;1.27;;;18.30;90.70;;;;;;5135846;27;45566;-66
2022/07/08 03:58:17;;;;;;;11.07;1.27;;;18.20;90.50;;;;;;5131186;27;45288;-66
2022/07/08 04:00:43;;;;;;;7.82;1.25;;;18.20;90.20;;;;;;5137131;27;45342;-66
2022/07/08 04:03:10;;;;;;;7.97;1.58;;;18.20;90.40;;;;;;5142602;27;45257;-66
2022/07/08 04:05:38;;;;;;;5.65;1.30;;;18.20;90.30;;;;;;5140481;27;45520;-67
2022/07/08 04:08:05;;;;;;;10.25;1.45;;;18.20;90.30;;;;;;5140116;27;45618;-66
2022/07/08 04:10:31;;;;;;;4.70;1.20;;;18.20;90.90;;;;;;5143474;27;48177;-66
2022/07/08 04:13:00;;;;;;;7.55;1.60;;;18.20;90.60;;;;;;5138276;27;45365;-66
2022/07/08 04:15:27;;;;;;;6.32;1.00;;;18.10;90.30;;;;;;5128682;27;45622;-67
2022/07/08 04:17:53;;;;;;;13.57;2.60;;;18.10;90.50;;;;;;5133794;27;45247;-66
2022/07/08 04:20:20;;;;;;;6.25;1.42;;;18.00;90.90;;;;;;5137100;27;47057;-66
2022/07/08 04:22:47;;;;;;;6.18;1.40;;;18.00;90.30;;;;;;5144021;27;45309;-67
2022/07/08 04:25:14;;;;;;;6.20;1.35;;;18.00;90.80;;;;;;5138474;27;45345;-66
2022/07/08 04:27:41;;;;;;;5.78;1.00;;;18.10;90.80;;;;;;5142321;27;45343;-66
2022/07/08 04:30:10;;;;;;;10.48;1.67;;;18.10;90.30;;;;;;5140560;27;45424;-66
2022/07/08 04:32:37;;;;;;;5.68;1.20;;;18.10;90.50;;;;;;5126909;27;45463;-66
2022/07/08 04:35:05;;;;;;;8.60;1.35;;;18.20;91.00;;;;;;5131909;27;45461;-66
2022/07/08 04:37:31;;;;;;;7.10;1.33;;;18.20;90.20;;;;;;5139186;27;45560;-66
2022/07/08 04:39:58;;;;;;;5.57;1.30;;;18.10;90.30;;;;;;5139323;27;47341;-66
2022/07/08 04:42:25;;;;;;;6.68;1.50;;;18.20;90.40;;;;;;5136964;27;45473;-66
2022/07/08 04:44:52;;;;;;;4.20;1.20;;;18.20;90.40;;;;;;5141518;27;45346;-66
2022/07/08 04:47:21;;;;;;;9.10;2.03;;;18.30;90.60;;;;;;5143447;27;45578;-66
2022/07/08 04:49:48;;;;;;;9.75;1.42;;;18.30;90.10;;;;;;5137806;27;45506;-66
2022/07/08 04:52:15;;;;;;;7.13;1.30;;;18.30;90.10;;;;;;5136627;27;45312;-67
2022/07/08 04:54:42;;;;;;;7.03;1.20;;;18.30;90.10;;;;;;5138760;27;45371;-66
2022/07/08 04:57:09;;;;;;;10.90;1.75;;;18.30;90.00;;;;;;5135280;27;45488;-66
2022/07/08 04:59:36;;;;;;;8.00;1.10;;;18.30;89.90;;;;;;5129690;27;47192;-66
2022/07/08 05:02:03;;;;;;;12.52;1.40;;;18.10;90.00;;;;;;5141849;27;45284;-68
2022/07/08 05:04:31;;;;;;;6.47;1.50;;;17.70;90.90;;;;;;5141884;27;45408;-66
2022/07/08 05:06:58;;;;;;;6.28;1.33;;;17.60;91.60;;;;;;5133200;27;45417;-66
2022/07/08 05:09:25;;;;;;;4.57;1.40;;;17.60;90.90;;;;;;5136622;27;45579;-66
2022/07/08 05:11:51;;;;;;;6.88;1.88;;;17.50;92.10;;;;;;5130038;27;45389;-66
2022/07/08 05:14:18;;;;;;;8.52;1.42;;;17.70;91.70;;;;;;5143516;27;45427;-66
2022/07/08 05:16:45;;;;;;;11.27;1.75;;;18.00;90.70;;;;;;5133236;27;45513;-67
2022/07/08 05:19:12;;;;;;;6.63;1.35;;;17.90;90.20;;;;;;5144143;27;46100;-66
2022/07/08 05:21:40;;;;;;;11.43;1.77;;;17.80;90.40;;;;;;5142715;27;45405;-67
2022/07/08 05:24:08;;;;;;;5.30;1.08;;;17.70;90.70;;;;;;5140728;27;45491;-67
2022/07/08 05:26:35;;;;;;;7.07;1.60;;;17.80;90.90;;;;;;5138618;27;45565;-67
2022/07/08 05:29:02;;;;;;;9.32;1.15;;;17.80;90.90;;;;;;5143128;27;46262;-68
2022/07/08 05:31:29;;;;;;;11.63;1.40;;;17.70;90.00;;;;;;5142205;27;45784;-67
2022/07/08 05:33:56;;;;;;;5.60;1.20;;;17.70;90.40;;;;;;5133956;27;45384;-67
2022/07/08 05:36:22;;;;;;;4.32;1.23;;;17.80;91.30;;;;;;5143392;27;45747;-67
2022/07/08 05:38:51;;;;;;;6.25;1.25;;;17.70;90.30;;;;;;5141398;27;46307;-66
2022/07/08 05:41:17;;;;;;;8.25;1.45;;;17.80;90.30;;;;;;5134087;27;45290;-67
2022/07/08 05:43:44;;;;;;;7.50;1.48;;;18.00;91.50;;;;;;5136816;27;45359;-66
2022/07/08 05:46:11;;;;;;;8.75;1.73;;;18.30;90.20;;;;;;5131216;27;45745;-66
2022/07/08 05:48:38;;;;;;;9.48;1.00;;;18.20;90.00;;;;;;5137344;27;47245;-67
2022/07/08 05:51:05;;;;;;;13.27;1.60;;;18.30;90.60;;;;;;5143806;27;45453;-66
2022/07/08 05:53:32;;;;;;;8.98;1.35;;;18.40;90.00;;;;;;5137468;27;45239;-66
2022/07/08 05:56:00;;;;;;;12.30;2.05;;;18.50;88.60;;;;;;5144098;27;45648;-67
2022/07/08 05:58:27;;;;;;;7.63;1.75;;;18.40;89.10;;;;;;5141768;27;45526;-67
2022/07/08 06:00:55;;;;;;;6.47;1.40;;;18.40;89.80;;;;;;5133311;27;45321;-67
2022/07/08 06:03:21;;;;;;;6.22;1.20;;;18.40;87.10;;;;;;5145736;27;45379;-67
2022/07/08 06:05:48;;;;;;;6.85;1.58;;;18.20;87.60;;;;;;5142412;27;45495;-66
2022/07/08 06:08:15;;;;;;;3.97;1.20;;;18.30;90.50;;;;;;5140099;27;45489;-67
2022/07/08 06:10:42;;;;;;;6.03;1.27;;;18.30;88.30;;;;;;5129305;27;45304;-66
2022/07/08 06:13:10;;;;;;;5.55;1.58;;;18.20;87.50;;;;;;5134359;27;45307;-67
2022/07/08 06:15:37;;;;;;;9.15;1.27;;;18.30;88.00;;;;;;5142212;27;45410;-66
2022/07/08 06:18:04;;;;;;;4.28;1.00;;;18.40;90.30;;;;;;5136439;27;47098;-66
2022/07/08 06:20:32;;;;;;;7.18;1.27;;;18.40;85.40;;;;;;5127877;27;45429;-67
2022/07/08 06:22:59;;;;;;;8.85;1.23;;;18.40;87.50;;;;;;5143081;27;45431;-66
2022/07/08 06:25:25;;;;;;;3.85;1.00;;;18.30;85.00;;;;;;5135833;27;45337;-66
2022/07/08 06:27:52;;;;;;;5.60;1.65;;;18.30;86.50;;;;;;5134753;27;45288;-67
2022/07/08 06:30:20;;;;;;;5.22;1.10;;;18.50;85.00;;;;;;5133748;27;45897;-67
2022/07/08 06:32:47;;;;;;;5.07;0.85;;;18.50;86.70;;;;;;5139324;27;45513;-66
2022/07/08 06:35:14;;;;;;;8.52;1.33;;;18.60;86.50;;;;;;5137324;27;45460;-68
2022/07/08 06:37:41;;;;;;;6.07;1.08;;;18.60;84.30;;;;;;5139388;27;46085;-67
2022/07/08 06:40:08;;;;;;;7.88;1.30;;;18.50;83.10;;;;;;5128389;27;45371;-67
2022/07/08 06:42:35;;;;;;;8.63;1.45;;;18.60;86.80;;;;;;5123068;27;45450;-67
2022/07/08 06:45:02;;;;;;;7.93;1.30;;;18.80;84.20;;;;;;5126843;27;45606;-67
2022/07/08 06:47:30;;;;;;;5.13;0.98;;;18.80;83.80;;;;;;5139976;27;46090;-67
2022/07/08 06:49:57;;;;;;;6.90;1.33;;;18.90;85.60;;;;;;5141670;27;45625;-67
2022/07/08 06:52:23;;;;;;;5.85;1.27;;;18.80;81.70;;;;;;5144308;27;45410;-67
2022/07/08 06:54:50;;;;;;;6.35;1.40;;;18.60;81.40;;;;;;5143128;27;45416;-68
2022/07/08 06:57:18;;;;;;;4.53;1.10;;;18.60;81.00;;;;;;5144553;27;46669;-66
2022/07/08 06:59:45;;;;;;;6.07;1.23;;;18.60;84.50;;;;;;5136949;27;45944;-67
2022/07/08 07:02:11;;;;;;;6.75;1.27;;;18.90;83.60;;;;;;5124822;27;45352;-67
2022/07/08 07:04:40;;;;;;;6.07;1.00;;;18.80;82.40;;;;;;5128067;27;45537;-66
2022/07/08 07:07:07;;;;;;;13.18;1.50;;;18.80;82.60;;;;;;5146105;27;47270;-67
2022/07/08 07:09:34;;;;;;;4.10;1.35;;;18.80;80.50;;;;;;5133743;27;45233;-67
2022/07/08 07:12:01;;;;;;;9.23;1.10;;;18.60;80.60;;;;;;5124821;27;45283;-67
2022/07/08 07:14:27;;;;;;;4.05;0.93;;;18.60;80.90;;;;;;5132904;27;45319;-67
2022/07/08 07:16:54;;;;;;;8.80;1.33;;;18.60;80.00;;;;;;5145756;27;47115;-67
2022/07/08 07:19:21;;;;;;;4.10;1.10;;;18.70;80.50;;;;;;5135987;27;45348;-66
2022/07/08 07:21:49;;;;;;;8.05;1.20;;;18.60;82.60;;;;;;5125219;27;45370;-66
2022/07/08 07:24:16;;;;;;;8.25;1.38;;;18.60;81.50;;;;;;5129350;27;45407;-66
2022/07/08 07:26:43;;;;;;;6.80;1.30;;;18.60;80.90;;;;;;5145358;27;47520;-67
2022/07/08 07:29:10;;;;;;;7.32;0.98;;;18.60;82.60;;;;;;5143995;27;45264;-66
2022/07/08 07:31:37;;;;;;;4.35;1.00;;;18.50;81.00;;;;;;5145710;27;45311;-67
2022/07/08 07:34:04;;;;;;;7.93;1.30;;;18.60;83.40;;;;;;5133482;27;45374;-67
2022/07/08 07:36:32;;;;;;;7.55;0.88;;;18.60;85.10;;;;;;5124394;27;45655;-66
2022/07/08 07:39:00;;;;;;;5.75;1.17;;;18.60;81.50;;;;;;5135644;27;45601;-66
2022/07/08 07:41:27;;;;;;;7.35;1.13;;;18.70;82.00;;;;;;5123841;27;45273;-66
2022/07/08 07:43:54;;;;;;;7.10;1.42;;;18.70;81.60;;;;;;5132640;27;45421;-67
2022/07/08 07:46:21;;;;;;;6.13;1.23;;;18.80;81.90;;;;;;5138972;27;46266;-66
2022/07/08 07:48:47;;;;;;;8.45;1.67;;;18.90;82.60;;;;;;5140395;27;45340;-67
2022/07/08 07:51:14;;;;;;;6.47;1.13;;;18.90;79.80;;;;;;5143757;27;45405;-67
2022/07/08 07:53:41;;;;;;;7.72;1.10;;;18.90;80.30;;;;;;5145636;27;45417;-66
2022/07/08 07:56:09;;;;;;;7.72;1.50;;;18.90;80.00;;;;;;5138440;27;47091;-66
2022/07/08 07:58:38;;;;;;;8.00;1.50;;;18.80;79.60;;;;;;5128065;27;45434;-67
2022/07/08 08:01:05;;;;;;;8.90;1.10;;;18.80;81.80;;;;;;5124408;27;45316;-66
2022/07/08 08:03:32;;;;;;;8.30;1.65;;;18.80;79.80;;;;;;5123803;27;45587;-66
2022/07/08 08:05:58;;;;;;;6.28;1.02;;;18.80;79.40;;;;;;5132947;27;47523;-66
2022/07/08 08:08:25;;;;;;;6.78;1.52;;;18.80;80.10;;;;;;5124092;27;45410;-67
2022/07/08 08:10:52;;;;;;;9.07;1.42;;;18.60;80.70;;;;;;5123877;27;45504;-66
2022/07/08 08:13:21;;;;;;;6.57;1.05;;;18.80;78.80;;;;;;5133497;27;45400;-66
2022/07/08 08:15:47;;;;;;;9.13;1.77;;;18.90;78.20;;;;;;5138123;27;46601;-66
2022/07/08 08:18:14;;;;;;;8.55;1.15;;;18.80;78.80;;;;;;5124810;27;45566;-67
2022/07/08 08:20:42;;;;;;;5.10;1.25;;;18.90;78.90;;;;;;5125851;27;45483;-67
2022/07/08 08:23:09;;;;;;;5.28;1.17;;;19.00;78.20;;;;;;5126214;27;45264;-66
2022/07/08 08:25:36;;;;;;;4.97;0.90;;;19.00;77.40;;;;;;5144335;27;46273;-66
2022/07/08 08:28:03;;;;;;;6.35;1.10;;;19.20;78.10;;;;;;5142648;27;45284;-67
2022/07/08 08:30:32;;;;;;;4.72;1.10;;;19.10;77.40;;;;;;5131681;27;45704;-67
2022/07/08 08:32:59;;;;;;;4.65;1.23;;;19.00;78.00;;;;;;5132851;27;45626;-68
2022/07/08 08:35:26;;;;;;;8.98;1.40;;;19.00;77.30;;;;;;5129770;27;46355;-67
2022/07/08 08:37:53;;;;;;;9.48;1.60;;;18.90;77.30;;;;;;5127315;27;45345;-68
2022/07/08 08:40:22;;;;;;;4.40;0.80;;;19.10;82.50;;;;;;5137921;27;45359;-67
2022/07/08 08:42:49;;;;;;;4.95;1.13;;;19.30;79.10;;;;;;5130963;27;45474;-67
2022/07/08 08:45:15;;;;;;;9.05;1.10;;;19.50;78.80;;;;;;5138993;27;47420;-67
2022/07/08 08:47:47;;;;;;;3.80;0.98;;;19.50;77.60;;;;;;5135330;27;45356;-67
2022/07/08 08:53:02;;;;;;;8.00;1.08;;;19.60;77.90;;;;;;5138456;27;45374;-67
2022/07/08 08:55:32;;;;;;;7.20;1.75;;;19.60;76.70;;;;;;5142661;27;46739;-67
2022/07/08 08:58:01;;;;;;;5.43;1.23;;;19.60;80.90;;;;;;5133659;27;45477;-66
2022/07/08 09:00:30;;;;;;;4.55;1.15;;;19.60;80.20;;;;;;5144156;27;45333;-67
2022/07/08 09:02:59;;;;;;;4.40;0.98;;;19.70;81.00;;;;;;5138996;27;45624;-66
2022/07/08 09:05:27;;;;;;;5.55;1.20;;;19.60;77.10;;;;;;5134036;27;48042;-67
2022/07/08 09:07:54;;;;;;;6.38;1.20;;;19.60;75.40;;;;;;5139554;27;45413;-67
2022/07/08 09:10:22;;;;;;;9.45;1.13;;;19.40;77.70;;;;;;5145823;27;45345;-67
2022/07/08 09:13:06;;;;;;;10.20;1.27;;;19.60;76.90;;;;;;5145756;27;45332;-67
2022/07/08 09:15:35;;;;;;;7.43;1.40;;;19.50;76.10;;;;;;5130015;27;47180;-68
2022/07/08 09:18:05;;;;;;;7.55;1.55;;;19.20;76.80;;;;;;5138979;27;46291;-66
2022/07/08 09:20:40;;;;;;;8.52;1.23;;;19.20;82.60;;;;;;5142317;27;45500;-67
2022/07/08 09:23:10;;;;;;;4.07;1.15;;;19.30;79.20;;;;;;5138735;27;45442;-67
2022/07/08 09:25:37;;;;;;;5.32;1.40;;;19.10;75.60;;;;;;5130648;27;45370;-69
2022/07/08 09:28:04;;;;;;;5.68;1.30;;;19.00;78.70;;;;;;5130571;27;45577;-67
2022/07/08 09:30:30;;;;;;;9.75;1.25;;;19.30;77.60;;;;;;5137695;27;45399;-67
2022/07/08 09:32:59;;;;;;;7.80;1.33;;;19.00;75.20;;;;;;5140827;27;45561;-67
2022/07/08 09:35:36;;;;;;;5.82;1.33;;;19.00;79.50;;;;;;5132023;27;48260;-68
2022/07/08 09:38:05;;;;;;;7.18;1.38;;;19.40;78.70;;;;;;5133902;27;45947;-66
2022/07/08 09:40:32;;;;;;;5.30;1.35;;;19.30;75.80;;;;;;5145913;27;45573;-67
2022/07/08 09:43:01;;;;;;;8.95;1.27;;;19.30;74.90;;;;;;5139846;27;45460;-67
2022/07/08 09:45:32;;;;;;;5.63;1.08;;;19.30;74.40;;;;;;5133554;27;45395;-67
2022/07/08 09:48:06;;;;;;;11.88;1.60;;;19.50;75.20;;;;;;5136368;27;45741;-67
2022/07/08 09:50:36;;;;;;;7.40;1.77;;;19.50;74.90;;;;;;5135279;27;45476;-66
2022/07/08 09:53:15;;;;;;;8.48;1.60;;;19.10;76.20;;;;;;5138709;27;45615;-66
2022/07/08 09:55:44;;;;;;;11.50;1.98;;;19.00;76.80;;;;;;5136897;27;45377;-65
2022/07/08 09:58:13;;;;;;;5.50;1.30;;;18.90;77.00;;;;;;5133952;27;45432;-66
2022/07/08 10:00:41;;;;;;;7.95;1.52;;;18.80;77.20;;;;;;5145519;27;45613;-65
2022/07/08 10:03:08;;;;;;;9.02;2.28;;;18.90;78.50;;;;;;5136568;27;45523;-65
2022/07/08 10:05:38;;;;;;;7.63;1.45;;;19.10;79.40;;;;;;5134578;27;47507;-65
2022/07/08 10:08:05;;;;;;;7.40;2.08;;;19.30;76.10;;;;;;5131639;27;45250;-67
2022/07/08 10:10:34;;;;;;;8.85;1.40;;;19.40;75.40;;;;;;5145000;27;45415;-65
2022/07/08 10:13:02;;;;;;;16.52;1.40;;;19.50;75.30;;;;;;5143598;27;45281;-65
2022/07/08 10:15:31;;;;;;;7.88;1.30;;;19.70;74.90;;;;;;5132390;27;46094;-66
2022/07/08 10:18:02;;;;;;;14.27;1.98;;;19.70;74.20;;;;;;5133801;27;45433;-65
2022/07/08 10:20:32;;;;;;;8.35;1.60;;;19.50;75.30;;;;;;5134716;27;45396;-66
2022/07/08 10:23:05;;;;;;;5.45;1.27;;;19.50;74.80;;;;;;5135792;27;45292;-65
2022/07/08 10:25:32;;;;;;;10.23;1.92;;;19.30;74.90;;;;;;5139452;27;46420;-66
2022/07/08 10:28:07;;;;;;;7.88;1.75;;;19.50;74.00;;;;;;5127928;27;45381;-65
2022/07/08 10:30:46;;;;;;;8.25;1.50;;;19.60;75.90;;;;;;5131863;27;45447;-65
2022/07/08 10:33:19;;;;;;;6.60;1.50;;;19.50;75.30;;;;;;5138865;27;45464;-65
2022/07/08 10:36:02;;;;;;;8.63;1.30;;;19.80;74.70;;;;;;5133774;27;46536;-66
2022/07/08 10:38:31;;;;;;;11.73;1.73;;;19.90;74.80;;;;;;5125415;27;45578;-65
2022/07/08 10:41:02;;;;;;;10.95;1.45;;;19.90;75.70;;;;;;5137715;27;45608;-66
2022/07/08 10:43:29;;;;;;;10.65;1.63;;;20.10;74.10;;;;;;5128370;27;45469;-66
2022/07/08 10:46:05;;;;;;;7.50;1.25;;;20.00;74.30;;;;;;5135688;27;47273;-65
2022/07/08 10:48:47;;;;;;;6.20;1.30;;;20.00;74.00;;;;;;5141200;27;45298;-65
2022/07/08 10:51:56;;;;;;;5.65;1.35;;;20.20;72.70;;;;;;5133537;27;45611;-66
2022/07/08 10:54:37;;;;;;;10.55;1.60;;;20.30;71.80;;;;;;5133359;27;45514;-66
2022/07/08 10:57:18;;;;;;;6.45;1.30;;;20.00;72.80;;;;;;5139990;27;46570;-66
2022/07/08 11:00:02;;;;;;;6.38;1.15;;;20.00;72.80;;;;;;5127156;27;45416;-65
2022/07/08 11:02:30;;;;;;;8.55;1.42;;;19.90;72.70;;;;;;5136692;27;45417;-66
2022/07/08 11:04:57;;;;;;;4.97;1.20;;;20.00;73.90;;;;;;5140423;27;45324;-66
2022/07/08 11:07:31;;;;;;;13.13;1.92;;;20.00;73.70;;;;;;5140175;27;46978;-67
2022/07/08 11:10:06;;;;;;;11.88;1.90;;;20.00;74.30;;;;;;5126617;27;45519;-66
2022/07/08 11:12:34;;;;;;;7.50;1.58;;;20.00;73.10;;;;;;5148208;27;45259;-74
2022/07/08 11:15:02;;;;;;;4.63;1.20;;;20.20;73.30;;;;;;5149120;27;45479;-74
2022/07/08 11:17:31;;;;;;;12.50;1.20;;;20.20;72.20;;;;;;5148841;27;46596;-74
2022/07/08 11:20:00;;;;;;;8.90;1.73;;;20.20;73.80;;;;;;5148730;27;45985;-74
2022/07/08 11:22:28;;;;;;;15.18;1.60;;;20.20;81.50;;;;;;5149212;27;45124;-74
2022/07/08 11:24:58;;;;;;;7.75;1.55;;;20.30;73.40;;;;;;5149075;27;45544;-74
2022/07/08 11:27:27;;;;;;;7.38;1.52;;;20.40;73.70;;;;;;5148536;27;48346;-74
2022/07/08 11:29:56;;;;;;;3.78;1.02;;;20.40;75.20;;;;;;5148737;27;45142;-74
2022/07/08 11:32:24;;;;;;;12.77;1.55;;;20.40;80.70;;;;;;5148689;27;45500;-74
2022/07/08 11:34:52;;;;;;;12.13;1.83;;;20.30;82.30;;;;;;5148736;27;45490;-74
2022/07/08 11:37:19;;;;;;;7.53;1.50;;;20.50;74.70;;;;;;5147936;27;46851;-75
2022/07/08 11:39:47;;;;;;;6.65;1.27;;;20.60;74.50;;;;;;5148466;27;45217;-74
2022/07/08 11:42:14;;;;;;;6.07;0.80;;;20.60;76.80;;;;;;5148606;27;45236;-74
2022/07/08 11:44:45;;;;;;;4.75;1.27;;;20.60;81.40;;;;;;5148589;27;45611;-74
2022/07/08 11:47:17;;;;;;;5.10;0.90;;;20.60;77.20;;;;;;5148303;27;45425;-74
2022/07/08 11:49:45;;;;;;;4.38;1.13;;;20.40;94.20;;;;;;5147985;27;45403;-74
2022/07/08 11:52:12;;;;;;;4.97;1.33;;;20.10;95.30;;;;;;5143874;27;45228;-74
2022/07/08 11:54:39;;;;;;;7.32;1.25;;;20.00;92.40;;;;;;5132747;27;45418;-74
2022/07/08 11:57:06;;;;;;;5.63;1.95;;;20.50;79.90;;;;;;5137973;27;46623;-74
2022/07/08 11:59:35;;;;;;;3.38;1.30;;;20.80;78.20;;;;;;5140452;27;45331;-74
2022/07/08 12:02:05;;;;;;;4.40;1.25;;;20.80;76.20;;;;;;5140299;27;45425;-74
2022/07/08 12:04:33;;;;;;;4.47;0.90;;;20.80;76.30;;;;;;5141289;27;45815;-74
2022/07/08 12:07:01;;;;;;;3.83;0.90;;;20.90;77.50;;;;;;5132471;27;48704;-74
2022/07/08 12:09:30;;;;;;;4.55;0.77;;;20.80;91.10;;;;;;5134386;27;45334;-74
2022/07/08 12:11:58;;;;;;;5.20;1.17;;;20.80;79.60;;;;;;5136813;27;45351;-74
2022/07/08 12:14:25;;;;;;;13.02;1.40;;;20.60;93.20;;;;;;5146422;27;45554;-74
2022/07/08 12:16:54;;;;;;;6.68;1.08;;;20.30;93.90;;;;;;5145029;27;47031;-74
2022/07/08 12:19:31;;;;;;;6.93;1.30;;;20.70;88.40;;;;;;5146410;27;45424;-75
2022/07/08 12:22:00;;;;;;;8.25;1.55;;;20.90;77.50;;;;;;5147225;27;45353;-74
2022/07/08 12:24:28;;;;;;;6.25;1.20;;;21.00;76.30;;;;;;5146824;27;45256;-74
2022/07/08 12:26:57;;;;;;;5.20;1.42;;;20.90;80.70;;;;;;5146760;27;48248;-74
2022/07/08 12:29:25;;;;;;;8.95;1.67;;;20.80;93.90;;;;;;5146628;27;45384;-74
2022/07/08 12:31:52;;;;;;;6.15;1.30;;;21.30;77.60;;;;;;5147776;27;45316;-73
2022/07/08 12:34:20;;;;;;;9.55;1.65;;;21.30;81.30;;;;;;5147063;27;45239;-74
2022/07/08 12:36:49;;;;;;;8.50;1.52;;;21.10;78.00;;;;;;5146461;27;45471;-74
2022/07/08 12:39:18;;;;;;;6.63;1.48;;;21.40;76.10;;;;;;5146718;27;45371;-75
2022/07/08 12:41:58;;;;;;;7.88;1.38;;;21.40;74.70;;;;;;5147346;27;45320;-74
2022/07/08 12:44:35;;;;;;;8.10;1.45;;;21.40;74.70;;;;;;5143162;27;45271;-75
2022/07/08 12:47:04;;;;;;;3.45;1.00;;;21.40;74.20;;;;;;5123401;27;46069;-74
2022/07/08 12:49:32;;;;;;;9.15;1.10;;;21.30;74.90;;;;;;5126188;27;45341;-74
2022/07/08 12:52:01;;;;;;;4.35;1.38;;;21.40;84.10;;;;;;5126126;27;45499;-74
2022/07/08 12:54:28;;;;;;;4.50;0.88;;;21.00;93.10;;;;;;5126336;27;45468;-74
2022/07/08 12:56:57;;;;;;;4.95;1.20;;;20.90;94.40;;;;;;5126282;27;46890;-75